createdAt,value
2023-02-11T00:01:13.031Z,68.58
2023-02-11T00:03:40.486Z,68.60
2023-02-11T00:06:11.063Z,68.45
2023-02-11T00:08:39.088Z,68.48
2023-02-11T00:11:07.334Z,68.33
2023-02-11T00:13:35.181Z,68.36
2023-02-11T00:16:06.140Z,68.34
2023-02-11T00:18:33.630Z,68.23
2023-02-11T00:21:07.972Z,68.19
2023-02-11T00:23:35.924Z,68.11
2023-02-11T00:26:04.440Z,68.30
2023-02-11T00:28:32.131Z,68.31
2023-02-11T00:31:01.624Z,68.36
2023-02-11T00:33:29.765Z,68.41
2023-02-11T00:35:57.093Z,68.47
2023-02-11T00:38:24.711Z,68.52
2023-02-11T00:40:52.139Z,68.43
2023-02-11T00:43:19.878Z,68.49
2023-02-11T00:45:47.487Z,68.63
2023-02-11T00:48:15.946Z,68.98
2023-02-11T00:50:43.528Z,68.98
2023-02-11T00:53:11.220Z,69.03
2023-02-11T00:55:39.128Z,69.13
2023-02-11T00:58:07.670Z,69.06
2023-02-11T01:00:36.039Z,69.16
2023-02-11T01:03:03.490Z,69.07
2023-02-11T01:05:31.089Z,69.19
2023-02-11T01:07:58.615Z,69.26
2023-02-11T01:10:26.078Z,69.36
2023-02-11T01:12:53.617Z,69.34
2023-02-11T01:15:21.575Z,69.30
2023-02-11T01:17:50.349Z,69.29
2023-02-11T01:20:23.930Z,69.29
2023-02-11T01:22:51.457Z,69.25
2023-02-11T01:25:19.049Z,69.26
2023-02-11T01:27:46.588Z,69.30
2023-02-11T01:30:14.466Z,69.21
2023-02-11T01:32:42.236Z,69.30
2023-02-11T01:35:10.088Z,69.29
2023-02-11T01:37:37.767Z,69.31
2023-02-11T01:40:07.757Z,69.22
2023-02-11T01:42:35.405Z,69.24
2023-02-11T01:45:06.575Z,69.23
2023-02-11T01:47:34.005Z,69.26
2023-02-11T01:50:02.127Z,69.06
2023-02-11T01:52:38.197Z,69.20
2023-02-11T01:55:28.664Z,69.21
2023-02-11T01:58:00.127Z,69.46
2023-02-11T02:00:33.892Z,69.73
2023-02-11T02:03:08.052Z,69.73
2023-02-11T02:05:55.194Z,69.82
2023-02-11T02:08:38.308Z,69.86
2023-02-11T02:11:06.768Z,69.95
2023-02-11T02:13:35.742Z,69.80
2023-02-11T02:16:15.663Z,69.78
2023-02-11T02:19:17.110Z,69.81
2023-02-11T02:22:16.815Z,69.99
2023-02-11T02:25:17.129Z,69.84
2023-02-11T02:27:51.836Z,69.84
2023-02-11T02:30:35.336Z,69.67
2023-02-11T02:33:26.532Z,69.52
2023-02-11T02:36:08.496Z,69.51
2023-02-11T02:38:57.863Z,69.49
2023-02-11T02:41:28.312Z,69.44
2023-02-11T02:43:56.170Z,69.45
2023-02-11T02:46:29.503Z,69.43
2023-02-11T02:48:57.932Z,69.38
2023-02-11T02:51:28.893Z,69.48
2023-02-11T02:54:31.745Z,69.44
2023-02-11T02:57:11.919Z,69.51
2023-02-11T02:59:54.717Z,69.48
2023-02-11T03:02:28.589Z,69.58
2023-02-11T03:05:05.738Z,69.83
2023-02-11T03:07:45.784Z,70.65
2023-02-11T03:10:28.585Z,70.43
2023-02-11T03:12:57.014Z,70.23
2023-02-11T03:15:26.899Z,70.11
2023-02-11T03:17:57.912Z,70.20
2023-02-11T03:20:27.393Z,70.21
2023-02-11T03:22:58.200Z,70.19
2023-02-11T03:25:31.660Z,70.26
2023-02-11T03:28:05.607Z,70.09
2023-02-11T03:30:36.681Z,70.16
2023-02-11T03:33:19.218Z,69.98
2023-02-11T03:36:02.088Z,70.03
2023-02-11T03:38:37.960Z,70.03
2023-02-11T03:41:07.008Z,69.97
2023-02-11T03:43:42.810Z,70.00
2023-02-11T03:46:11.430Z,70.29
2023-02-11T03:48:41.727Z,70.13
2023-02-11T03:51:10.927Z,70.15
2023-02-11T03:53:41.435Z,70.10
2023-02-11T03:56:12.628Z,70.11
2023-02-11T03:58:40.190Z,70.01
2023-02-11T04:01:09.292Z,69.99
2023-02-11T04:03:36.926Z,69.94
2023-02-11T04:06:04.811Z,69.95
2023-02-11T04:08:32.301Z,69.93
2023-02-11T04:10:59.862Z,69.80
2023-02-11T04:13:27.367Z,69.77
2023-02-11T04:15:55.103Z,69.73
2023-02-11T04:18:22.614Z,69.79
2023-02-11T04:20:50.821Z,69.69
2023-02-11T04:23:18.558Z,69.76
2023-02-11T04:25:45.963Z,69.82
2023-02-11T04:28:14.076Z,70.04
2023-02-11T04:30:41.720Z,70.12
2023-02-11T04:33:09.249Z,70.21
2023-02-11T04:35:36.580Z,70.47
2023-02-11T04:38:04.243Z,70.36
2023-02-11T04:40:31.780Z,70.32
2023-02-11T04:42:58.973Z,70.50
2023-02-11T04:45:26.490Z,70.41
2023-02-11T04:47:53.857Z,70.44
2023-02-11T04:50:21.421Z,70.38
2023-02-11T04:52:49.051Z,70.34
2023-02-11T04:55:16.546Z,70.31
2023-02-11T04:57:44.076Z,70.29
2023-02-11T05:00:12.068Z,70.15
2023-02-11T05:02:39.799Z,70.09
2023-02-11T05:05:07.759Z,70.19
2023-02-11T05:07:35.251Z,70.32
2023-02-11T05:10:03.204Z,70.21
2023-02-11T05:12:30.672Z,70.12
2023-02-11T05:14:58.054Z,70.11
2023-02-11T05:17:25.469Z,70.11
2023-02-11T05:19:52.905Z,70.10
2023-02-11T05:22:21.435Z,70.14
2023-02-11T05:24:49.287Z,70.16
2023-02-11T05:27:16.621Z,70.22
2023-02-11T05:29:44.492Z,70.16
2023-02-11T05:32:11.904Z,70.18
2023-02-11T05:34:39.639Z,70.25
2023-02-11T05:37:07.055Z,70.39
2023-02-11T05:39:34.388Z,70.47
2023-02-11T05:42:01.831Z,70.43
2023-02-11T05:44:31.059Z,70.46
2023-02-11T05:46:58.530Z,70.42
2023-02-11T05:49:26.046Z,70.46
2023-02-11T05:51:53.624Z,70.76
2023-02-11T05:54:21.173Z,70.83
2023-02-11T05:56:48.580Z,70.79
2023-02-11T05:59:16.319Z,70.43
2023-02-11T06:01:43.778Z,70.21
2023-02-11T06:04:11.177Z,69.42
2023-02-11T06:06:38.845Z,68.95
2023-02-11T06:09:06.241Z,68.74
2023-02-11T06:11:33.862Z,68.34
2023-02-11T06:14:01.679Z,66.65
2023-02-11T06:16:29.400Z,66.50
2023-02-11T06:18:56.788Z,65.73
2023-02-11T06:21:36.366Z,66.14
2023-02-11T06:23:55.456Z,65.04
2023-02-11T06:26:24.555Z,64.18
2023-02-11T06:28:51.967Z,63.67
2023-02-11T06:31:19.645Z,64.18
2023-02-11T06:33:47.156Z,63.50
2023-02-11T06:36:17.389Z,63.09
2023-02-11T06:38:46.668Z,62.81
2023-02-11T06:41:16.064Z,61.45
2023-02-11T06:43:43.485Z,62.21
2023-02-11T06:46:10.807Z,61.46
2023-02-11T06:48:43.688Z,60.83
2023-02-11T06:51:11.563Z,60.33
2023-02-11T06:53:42.380Z,59.97
2023-02-11T06:56:12.060Z,59.68
2023-02-11T06:58:39.426Z,59.46
2023-02-11T07:01:08.930Z,59.90
2023-02-11T07:03:38.404Z,59.97
2023-02-11T07:06:07.310Z,59.80
2023-02-11T07:08:36.318Z,59.33
2023-02-11T07:11:13.421Z,60.13
2023-02-11T07:13:40.834Z,60.15
2023-02-11T07:16:11.702Z,59.73
2023-02-11T07:18:39.311Z,58.91
2023-02-11T07:21:11.617Z,58.20
2023-02-11T07:23:40.406Z,57.73
2023-02-11T07:26:10.359Z,57.14
2023-02-11T07:28:38.323Z,57.89
2023-02-11T07:31:10.689Z,58.23
2023-02-11T07:33:38.268Z,58.56
2023-02-11T07:36:07.038Z,57.61
2023-02-11T07:38:34.766Z,57.90
2023-02-11T07:41:08.861Z,58.18
2023-02-11T07:43:37.821Z,57.92
2023-02-11T07:46:07.576Z,56.64
2023-02-11T07:48:35.463Z,56.67
2023-02-11T07:51:12.060Z,55.29
2023-02-11T07:53:39.976Z,56.78
2023-02-11T07:56:09.201Z,56.39
2023-02-11T07:58:37.190Z,56.29
2023-02-11T08:01:14.413Z,56.25
2023-02-11T08:03:42.636Z,55.98
2023-02-11T08:06:13.068Z,56.20
2023-02-11T08:08:45.222Z,55.56
2023-02-11T08:11:18.497Z,55.23
2023-02-11T08:13:46.021Z,54.63
2023-02-11T08:16:29.206Z,55.06
2023-02-11T08:18:59.212Z,53.74
2023-02-11T08:21:26.978Z,53.91
2023-02-11T08:23:55.017Z,54.64
2023-02-11T08:26:25.646Z,54.42
2023-02-11T08:28:56.045Z,54.20
2023-02-11T08:31:36.164Z,53.49
2023-02-11T08:34:04.252Z,52.68
2023-02-11T08:36:37.082Z,52.81
2023-02-11T08:39:19.051Z,52.33
2023-02-11T08:41:40.855Z,52.66
2023-02-11T08:44:08.402Z,53.03
2023-02-11T08:46:35.916Z,52.89
2023-02-11T08:49:03.258Z,53.25
2023-02-11T08:51:30.966Z,53.63
2023-02-11T08:53:59.384Z,51.43
2023-02-11T08:56:30.288Z,51.80
2023-02-11T08:58:57.495Z,51.33
2023-02-11T09:01:28.139Z,52.21
2023-02-11T09:03:56.097Z,51.59
2023-02-11T09:06:24.846Z,51.38
2023-02-11T09:08:54.399Z,51.16
2023-02-11T09:11:30.783Z,51.74
2023-02-11T09:13:58.275Z,51.19
2023-02-11T09:16:30.342Z,50.78
2023-02-11T09:18:58.674Z,50.40
2023-02-11T09:21:26.478Z,51.82
2023-02-11T09:23:54.074Z,51.32
2023-02-11T09:26:25.322Z,50.02
2023-02-11T09:28:53.031Z,49.46
2023-02-11T09:31:23.347Z,49.75
2023-02-11T09:33:53.975Z,48.24
2023-02-11T09:36:30.815Z,48.71
2023-02-11T09:39:00.371Z,48.74
2023-02-11T09:41:52.765Z,49.14
2023-02-11T09:44:24.274Z,49.18
2023-02-11T09:47:03.371Z,49.44
2023-02-11T09:49:42.223Z,50.30
2023-02-11T09:52:48.548Z,50.23
2023-02-11T09:55:21.334Z,50.10
2023-02-11T09:57:50.095Z,49.69
2023-02-11T10:00:24.505Z,48.68
2023-02-11T10:03:10.823Z,48.74
2023-02-11T10:05:57.084Z,48.87
2023-02-11T10:08:40.198Z,48.79
2023-02-11T10:11:31.625Z,48.43
2023-02-11T10:14:04.905Z,48.62
2023-02-11T10:16:35.932Z,48.68
2023-02-11T10:19:13.590Z,47.80
2023-02-11T10:22:03.065Z,48.63
2023-02-11T10:24:31.419Z,48.89
2023-02-11T10:26:59.231Z,49.20
2023-02-11T10:29:39.534Z,49.49
2023-02-11T10:32:13.515Z,48.75
2023-02-11T10:34:42.176Z,47.46
2023-02-11T10:37:12.550Z,47.47
2023-02-11T10:39:40.973Z,47.48
2023-02-11T10:42:11.249Z,47.47
2023-02-11T10:44:45.155Z,47.57
2023-02-11T10:47:16.428Z,46.99
2023-02-11T10:49:45.763Z,46.60
2023-02-11T10:52:19.229Z,47.06
2023-02-11T10:55:06.877Z,45.75
2023-02-11T10:57:37.004Z,45.86
2023-02-11T11:00:38.484Z,46.00
2023-02-11T11:03:23.904Z,46.58
2023-02-11T11:05:56.062Z,47.18
2023-02-11T11:08:41.725Z,46.06
2023-02-11T11:11:12.305Z,46.19
2023-02-11T11:13:57.257Z,46.16
2023-02-11T11:16:31.834Z,46.35
2023-02-11T11:19:12.959Z,46.82
2023-02-11T11:21:49.365Z,47.17
2023-02-11T11:24:24.979Z,47.70
2023-02-11T11:26:55.765Z,48.14
2023-02-11T11:29:32.385Z,47.88
2023-02-11T11:32:05.869Z,47.92
2023-02-11T11:34:45.062Z,46.34
2023-02-11T11:37:27.197Z,47.21
2023-02-11T11:40:01.249Z,47.62
2023-02-11T11:42:33.724Z,46.45
2023-02-11T11:45:19.572Z,46.82
2023-02-11T11:48:05.822Z,46.63
2023-02-11T11:50:50.008Z,47.53
2023-02-11T11:53:39.501Z,47.88
2023-02-11T11:56:19.851Z,48.10
2023-02-11T11:58:48.089Z,47.54
2023-02-11T12:01:35.891Z,47.85
2023-02-11T12:04:19.107Z,47.90
2023-02-11T12:07:25.862Z,47.88
2023-02-11T12:10:16.424Z,47.93
2023-02-11T12:12:50.958Z,48.42
2023-02-11T12:15:43.103Z,47.68
2023-02-11T12:18:38.280Z,48.01
2023-02-11T12:21:15.814Z,47.77
2023-02-11T12:23:55.693Z,48.14
2023-02-11T12:26:26.214Z,48.33
2023-02-11T12:29:25.803Z,48.08
2023-02-11T12:32:19.617Z,48.40
2023-02-11T12:35:19.654Z,48.93
2023-02-11T12:37:50.732Z,49.15
2023-02-11T12:40:24.930Z,49.21
2023-02-11T12:43:21.744Z,48.61
2023-02-11T12:46:10.281Z,47.92
2023-02-11T12:48:47.203Z,48.17
2023-02-11T12:51:19.045Z,48.42
2023-02-11T12:54:14.415Z,48.64
2023-02-11T12:57:05.601Z,48.96
2023-02-11T13:00:04.360Z,49.10
2023-02-11T13:02:41.459Z,48.98
2023-02-11T13:05:18.424Z,48.90
2023-02-11T13:07:47.370Z,48.63
2023-02-11T13:10:28.396Z,48.90
2023-02-11T13:13:15.659Z,48.69
2023-02-11T13:15:48.932Z,48.84
2023-02-11T13:18:32.475Z,48.36
2023-02-11T13:21:18.032Z,49.30
2023-02-11T13:24:15.611Z,49.57
2023-02-11T13:26:52.968Z,49.71
2023-02-11T13:29:23.909Z,49.82
2023-02-11T13:31:57.057Z,49.92
2023-02-11T13:34:47.282Z,50.06
2023-02-11T13:37:23.600Z,49.95
2023-02-11T13:40:06.917Z,50.64
2023-02-11T13:42:38.065Z,51.08
2023-02-11T13:45:09.188Z,51.18
2023-02-11T13:47:37.485Z,51.35
2023-02-11T13:50:06.821Z,51.62
2023-02-11T13:52:36.816Z,51.54
2023-02-11T13:55:21.238Z,51.63
2023-02-11T13:58:11.456Z,51.95
2023-02-11T14:00:46.482Z,52.13
2023-02-11T14:03:36.709Z,52.36
2023-02-11T14:09:22.416Z,52.63
2023-02-11T14:11:56.757Z,52.88
2023-02-11T14:14:33.083Z,52.88
2023-02-11T14:17:10.713Z,52.90
2023-02-11T14:20:01.267Z,52.94
2023-02-11T14:22:44.374Z,53.40
2023-02-11T14:25:20.906Z,53.51
2023-02-11T14:27:59.363Z,53.58
2023-02-11T14:30:44.309Z,53.68
2023-02-11T14:33:37.470Z,53.76
2023-02-11T14:36:25.034Z,53.79
2023-02-11T14:39:03.021Z,53.39
2023-02-11T14:41:33.404Z,53.66
2023-02-11T14:44:07.092Z,53.87
2023-02-11T14:46:34.819Z,53.86
2023-02-11T14:49:04.755Z,53.79
2023-02-11T14:51:38.756Z,53.89
2023-02-11T14:54:16.556Z,54.02
2023-02-11T14:56:46.956Z,54.10
2023-02-11T14:59:20.420Z,54.00
2023-02-11T15:04:46.544Z,53.97
2023-02-11T15:07:21.506Z,54.22
2023-02-11T15:09:55.031Z,54.19
2023-02-11T15:12:29.175Z,54.44
2023-02-11T15:15:01.162Z,54.58
2023-02-11T15:17:31.405Z,54.61
2023-02-11T15:20:02.609Z,54.74
2023-02-11T15:22:36.910Z,54.79
2023-02-11T15:25:15.201Z,54.93
2023-02-11T15:27:45.870Z,55.10
2023-02-11T15:30:32.983Z,55.38
2023-02-11T15:33:05.210Z,55.72
2023-02-11T15:35:38.755Z,55.80
2023-02-11T15:38:16.955Z,55.86
2023-02-11T15:41:20.401Z,55.60
2023-02-11T15:54:34.626Z,55.65
2023-02-11T16:00:02.197Z,55.99
2023-02-11T16:02:40.030Z,56.08
2023-02-11T16:05:09.489Z,56.19
2023-02-11T16:07:51.922Z,56.24
2023-02-11T16:10:23.206Z,56.66
2023-02-11T16:12:57.772Z,56.80
2023-02-11T16:15:49.485Z,56.85
2023-02-11T16:18:37.809Z,56.89
2023-02-11T16:21:00.988Z,56.97
2023-02-11T16:23:34.539Z,56.95
2023-02-11T16:26:11.643Z,57.08
2023-02-11T16:28:40.402Z,56.92
2023-02-11T16:31:09.237Z,56.86
2023-02-11T16:33:36.906Z,56.97
2023-02-11T16:36:13.596Z,57.03
2023-02-11T16:38:41.139Z,57.27
2023-02-11T16:41:12.483Z,57.25
2023-02-11T16:43:39.964Z,57.16
2023-02-11T16:46:08.784Z,57.31
2023-02-11T16:48:37.589Z,57.25
2023-02-11T16:51:07.184Z,57.44
2023-02-11T16:53:34.506Z,57.25
2023-02-11T16:56:02.858Z,57.21
2023-02-11T16:58:30.035Z,57.26
2023-02-11T17:00:57.862Z,57.29
2023-02-11T17:03:29.894Z,57.39
2023-02-11T17:05:56.182Z,57.91
2023-02-11T17:08:23.848Z,57.91
2023-02-11T17:10:52.026Z,58.18
2023-02-11T17:13:19.618Z,58.67
2023-02-11T17:15:52.525Z,58.75
2023-02-11T17:18:21.951Z,58.91
2023-02-11T17:20:50.110Z,59.07
2023-02-11T17:23:17.528Z,59.13
2023-02-11T17:25:46.038Z,59.11
2023-02-11T17:28:13.698Z,59.21
2023-02-11T17:30:55.290Z,59.33
2023-02-11T17:33:27.220Z,59.31
2023-02-11T17:35:55.225Z,59.37
2023-02-11T17:38:33.800Z,59.42
2023-02-11T17:41:20.946Z,59.42
2023-02-11T17:44:12.611Z,59.64
2023-02-11T17:46:45.361Z,60.11
2023-02-11T17:49:47.646Z,60.87
2023-02-11T17:52:52.912Z,60.69
2023-02-11T17:55:22.353Z,60.55
2023-02-11T17:57:55.345Z,60.77
2023-02-11T18:00:23.311Z,60.79
2023-02-11T18:02:50.786Z,60.62
2023-02-11T18:05:20.418Z,60.73
2023-02-11T18:07:48.314Z,60.55
2023-02-11T18:10:15.665Z,60.64
2023-02-11T18:12:43.399Z,60.58
2023-02-11T18:15:11.647Z,60.48
2023-02-11T18:17:40.408Z,60.38
2023-02-11T18:20:10.367Z,60.35
2023-02-11T18:22:40.487Z,60.28
2023-02-11T18:25:08.842Z,60.45
2023-02-11T18:27:36.677Z,60.42
2023-02-11T18:30:07.411Z,60.41
2023-02-11T18:32:37.009Z,60.39
2023-02-11T18:35:14.397Z,60.34
2023-02-11T18:37:42.107Z,60.25
2023-02-11T18:40:10.822Z,60.23
2023-02-11T18:42:49.424Z,60.31
2023-02-11T18:45:19.396Z,60.33
2023-02-11T18:47:47.482Z,60.35
2023-02-11T18:50:18.155Z,60.31
2023-02-11T18:52:49.588Z,60.22
2023-02-11T18:55:20.884Z,60.08
2023-02-11T18:57:49.306Z,59.98
2023-02-11T19:00:17.993Z,59.84
2023-02-11T19:02:47.862Z,59.85
2023-02-11T19:05:15.541Z,59.76
2023-02-11T19:07:43.357Z,59.75
2023-02-11T19:10:13.443Z,59.99
2023-02-11T19:12:48.398Z,59.98
2023-02-11T19:15:16.029Z,60.09
2023-02-11T19:17:45.137Z,60.25
2023-02-11T19:20:12.824Z,60.42
2023-02-11T19:22:40.883Z,60.63
2023-02-11T19:25:08.816Z,60.71
2023-02-11T19:27:36.361Z,60.59
2023-02-11T19:30:04.658Z,60.55
2023-02-11T19:32:32.192Z,60.62
2023-02-11T19:34:59.541Z,60.83
2023-02-11T19:37:29.843Z,60.96
2023-02-11T19:39:57.690Z,61.05
2023-02-11T19:42:27.692Z,61.09
2023-02-11T19:44:56.776Z,61.37
2023-02-11T19:47:26.405Z,61.33
2023-02-11T19:49:54.142Z,61.52
2023-02-11T19:52:21.696Z,61.57
2023-02-11T19:54:50.828Z,61.73
2023-02-11T19:57:21.096Z,62.00
2023-02-11T19:59:49.351Z,61.93
2023-02-11T20:02:18.100Z,62.00
2023-02-11T20:04:48.298Z,61.74
2023-02-11T20:07:16.181Z,61.83
2023-02-11T20:09:43.667Z,61.94
2023-02-11T20:12:12.055Z,61.78
2023-02-11T20:14:39.834Z,61.94
2023-02-11T20:17:07.386Z,61.95
2023-02-11T20:19:35.232Z,61.93
2023-02-11T20:22:18.268Z,62.09
2023-02-11T20:24:42.093Z,62.05
2023-02-11T20:27:12.211Z,61.76
2023-02-11T20:29:39.863Z,62.06
2023-02-11T20:32:08.319Z,62.12
2023-02-11T20:34:36.741Z,62.25
2023-02-11T20:37:05.380Z,62.25
2023-02-11T20:39:36.683Z,62.19
2023-02-11T20:42:04.286Z,62.19
2023-02-11T20:44:33.610Z,62.15
2023-02-11T20:47:03.633Z,62.01
2023-02-11T20:49:31.375Z,62.15
2023-02-11T20:52:00.429Z,62.35
2023-02-11T20:54:28.282Z,62.23
2023-02-11T20:56:57.579Z,62.50
2023-02-11T20:59:25.088Z,62.36
2023-02-11T21:01:54.954Z,62.36
2023-02-11T21:04:25.231Z,62.43
2023-02-11T21:06:55.516Z,62.45
2023-02-11T21:09:30.141Z,62.51
2023-02-11T21:11:57.890Z,62.54
2023-02-11T21:14:26.502Z,62.60
2023-02-11T21:16:54.300Z,62.55
2023-02-11T21:19:24.132Z,62.58
2023-02-11T21:21:52.428Z,62.60
2023-02-11T21:24:21.965Z,62.62
2023-02-11T21:26:49.659Z,62.66
2023-02-11T21:29:19.644Z,62.55
2023-02-11T21:31:47.383Z,62.64
2023-02-11T21:34:15.565Z,62.73
2023-02-11T21:36:50.362Z,62.77
2023-02-11T21:39:18.538Z,62.76
2023-02-11T21:44:35.312Z,62.77
2023-02-11T21:47:04.014Z,62.64
2023-02-11T21:49:31.982Z,62.63
2023-02-11T21:52:00.130Z,62.75
2023-02-11T21:54:31.293Z,62.94
2023-02-11T21:57:01.279Z,62.96
2023-02-11T21:59:31.166Z,63.05
2023-02-11T22:01:59.014Z,63.00
2023-02-11T22:04:26.608Z,63.06
2023-02-11T22:06:54.047Z,63.08
2023-02-11T22:09:21.547Z,63.17
2023-02-11T22:11:49.297Z,63.23
2023-02-11T22:14:16.831Z,63.27
2023-02-11T22:16:45.406Z,63.35
2023-02-11T22:19:12.773Z,63.57
2023-02-11T22:21:42.768Z,63.49
2023-02-11T22:24:10.410Z,63.56
2023-02-11T22:26:37.932Z,63.62
2023-02-11T22:29:05.789Z,63.63
2023-02-11T22:31:34.664Z,63.66
2023-02-11T22:34:04.901Z,63.64
2023-02-11T22:36:35.562Z,63.88
2023-02-11T22:39:05.931Z,63.95
2023-02-11T22:41:34.057Z,63.88
2023-02-11T22:44:02.561Z,63.87
2023-02-11T22:46:30.737Z,63.86
2023-02-11T22:48:58.467Z,63.96
2023-02-11T22:51:28.186Z,64.14
2023-02-11T22:54:03.843Z,64.24
2023-02-11T22:56:34.942Z,64.26
2023-02-11T22:59:04.468Z,64.22
2023-02-11T23:01:32.435Z,64.22
2023-02-11T23:04:01.985Z,64.28
2023-02-11T23:06:29.396Z,64.39
2023-02-11T23:08:56.962Z,64.33
2023-02-11T23:11:29.179Z,64.28
2023-02-11T23:13:59.022Z,64.35
2023-02-11T23:16:33.585Z,64.30
2023-02-11T23:21:59.568Z,64.36
2023-02-11T23:24:27.588Z,64.48
2023-02-11T23:26:55.221Z,64.49
2023-02-11T23:29:23.012Z,64.32
2023-02-11T23:31:50.851Z,64.22
2023-02-11T23:34:20.538Z,64.31
2023-02-11T23:36:48.226Z,64.80
2023-02-11T23:39:16.490Z,65.21
2023-02-11T23:41:44.769Z,65.09
2023-02-11T23:44:12.358Z,65.42
2023-02-11T23:46:39.726Z,65.68
2023-02-11T23:49:07.091Z,65.71
2023-02-11T23:51:34.633Z,65.67
2023-02-11T23:54:02.875Z,66.25
2023-02-11T23:56:30.388Z,66.23
2023-02-11T23:58:58.742Z,66.56
